createdAt,value
2022-12-03T00:01:53.143Z,-4.00
2022-12-03T00:04:19.984Z,-3.90
2022-12-03T00:06:46.883Z,-4.00
2022-12-03T00:09:13.870Z,-4.00
2022-12-03T00:11:40.758Z,-4.10
2022-12-03T00:14:07.695Z,-4.10
2022-12-03T00:16:34.666Z,-4.00
2022-12-03T00:19:01.660Z,-4.00
2022-12-03T00:21:28.609Z,-4.00
2022-12-03T00:23:55.473Z,-4.00
2022-12-03T00:26:22.475Z,-4.20
2022-12-03T00:28:49.380Z,-4.10
2022-12-03T00:31:16.593Z,-3.90
2022-12-03T00:33:43.559Z,-4.10
2022-12-03T00:36:10.655Z,-3.90
2022-12-03T00:38:37.594Z,-3.90
2022-12-03T00:41:04.647Z,-4.00
2022-12-03T00:43:31.526Z,-4.00
2022-12-03T00:45:58.582Z,-4.00
2022-12-03T00:48:25.697Z,-4.00
2022-12-03T00:50:52.673Z,-4.00
2022-12-03T00:53:19.534Z,-3.90
2022-12-03T00:55:46.629Z,-3.80
2022-12-03T00:58:13.592Z,-4.00
2022-12-03T01:00:40.445Z,-4.00
2022-12-03T01:03:07.413Z,-4.00
2022-12-03T01:05:34.318Z,-3.90
2022-12-03T01:08:01.305Z,-4.00
2022-12-03T01:10:28.491Z,-3.90
2022-12-03T01:12:55.661Z,-4.00
2022-12-03T01:15:22.475Z,-3.90
2022-12-03T01:17:49.428Z,-3.80
2022-12-03T01:20:16.363Z,-3.70
2022-12-03T01:22:43.332Z,-3.70
2022-12-03T01:25:10.567Z,-3.70
2022-12-03T01:27:37.660Z,-3.60
2022-12-03T01:30:05.592Z,-3.60
2022-12-03T01:32:32.547Z,-3.70
2022-12-03T01:34:59.488Z,-3.70
2022-12-03T01:37:27.022Z,-3.70
2022-12-03T01:39:54.374Z,-3.70
2022-12-03T01:42:26.918Z,-3.70
2022-12-03T01:44:57.027Z,-3.70
2022-12-03T01:47:36.308Z,-3.80
2022-12-03T01:50:08.423Z,-3.70
2022-12-03T01:52:38.689Z,-3.70
2022-12-03T01:55:11.639Z,-3.70
2022-12-03T01:57:54.355Z,-3.50
2022-12-03T02:00:23.581Z,-3.50
2022-12-03T02:03:00.700Z,-3.60
2022-12-03T02:05:30.120Z,-3.60
2022-12-03T02:07:58.264Z,-3.60
2022-12-03T02:10:36.278Z,-3.70
2022-12-03T02:13:08.448Z,-3.60
2022-12-03T02:15:39.282Z,-3.60
2022-12-03T02:18:07.689Z,-3.70
2022-12-03T02:20:44.090Z,-3.60
2022-12-03T02:23:44.898Z,-3.70
2022-12-03T02:26:11.866Z,-3.60
2022-12-03T02:28:39.070Z,-3.50
2022-12-03T02:31:06.264Z,-3.50
2022-12-03T02:33:33.590Z,-3.50
2022-12-03T02:36:03.788Z,-3.50
2022-12-03T02:38:33.966Z,-3.50
2022-12-03T02:41:05.901Z,-3.50
2022-12-03T02:43:33.162Z,-3.50
2022-12-03T02:46:02.610Z,-3.50
2022-12-03T02:48:35.988Z,-3.50
2022-12-03T02:51:09.303Z,-3.60
2022-12-03T02:53:44.650Z,-3.60
2022-12-03T02:56:17.921Z,-3.60
2022-12-03T02:58:47.098Z,-3.60
2022-12-03T03:01:17.119Z,-3.60
2022-12-03T03:03:46.663Z,-3.70
2022-12-03T03:06:15.229Z,-3.70
2022-12-03T03:08:43.032Z,-3.60
2022-12-03T03:11:10.126Z,-3.50
2022-12-03T03:13:38.002Z,-3.50
2022-12-03T03:16:06.300Z,-3.60
2022-12-03T03:18:35.712Z,-3.60
2022-12-03T03:21:03.975Z,-3.50
2022-12-03T03:23:31.020Z,-3.60
2022-12-03T03:26:02.710Z,-3.70
2022-12-03T03:28:30.496Z,-3.70
2022-12-03T03:31:00.748Z,-3.80
2022-12-03T03:33:27.897Z,-3.70
2022-12-03T03:35:55.011Z,-3.60
2022-12-03T03:38:23.925Z,-3.60
2022-12-03T03:40:53.016Z,-3.60
2022-12-03T03:43:22.178Z,-3.50
2022-12-03T03:45:49.774Z,-3.60
2022-12-03T03:48:17.369Z,-3.60
2022-12-03T03:50:45.406Z,-3.70
2022-12-03T03:53:13.081Z,-3.70
2022-12-03T03:55:40.588Z,-3.70
2022-12-03T03:58:07.730Z,-3.70
2022-12-03T04:00:36.561Z,-3.70
2022-12-03T04:03:04.799Z,-3.70
2022-12-03T04:05:32.002Z,-3.60
2022-12-03T04:07:59.501Z,-3.60
2022-12-03T04:10:44.939Z,-3.50
2022-12-03T04:13:11.935Z,-3.50
2022-12-03T04:15:38.981Z,-3.60
2022-12-03T04:18:24.706Z,-3.50
2022-12-03T04:20:51.551Z,-3.50
2022-12-03T04:23:18.430Z,-3.40
2022-12-03T04:26:04.040Z,-3.50
2022-12-03T04:28:49.377Z,-3.50
2022-12-03T04:31:34.711Z,-3.60
2022-12-03T04:34:20.293Z,-3.70
2022-12-03T04:36:47.690Z,-3.70
2022-12-03T04:39:14.739Z,-3.70
2022-12-03T04:41:41.719Z,-3.60
2022-12-03T04:44:34.782Z,-3.50
2022-12-03T04:47:14.871Z,-3.60
2022-12-03T04:49:47.678Z,-3.60
2022-12-03T04:52:15.982Z,-3.60
2022-12-03T04:54:43.491Z,-3.70
2022-12-03T04:57:11.411Z,-3.70
2022-12-03T04:59:39.042Z,-3.70
2022-12-03T05:02:06.740Z,-3.60
2022-12-03T05:04:34.080Z,-3.60
2022-12-03T05:07:01.029Z,-3.70
2022-12-03T05:09:28.133Z,-3.60
2022-12-03T05:11:55.183Z,-4.00
2022-12-03T05:14:22.214Z,-4.00
2022-12-03T05:16:49.195Z,-3.90
2022-12-03T05:19:16.164Z,-3.90
2022-12-03T05:21:43.141Z,-3.90
2022-12-03T05:24:09.991Z,-3.90
2022-12-03T05:26:37.015Z,-3.80
2022-12-03T05:29:03.969Z,-4.00
2022-12-03T05:31:30.899Z,-4.00
2022-12-03T05:33:57.950Z,-4.10
2022-12-03T05:36:25.735Z,-4.10
2022-12-03T05:38:52.973Z,-4.20
2022-12-03T05:41:38.829Z,-4.20
2022-12-03T05:44:06.568Z,-4.20
2022-12-03T05:46:33.923Z,-4.20
2022-12-03T05:49:07.160Z,-4.00
2022-12-03T05:51:35.447Z,-4.20
2022-12-03T05:54:02.902Z,-4.10
2022-12-03T05:56:29.931Z,-4.20
2022-12-03T05:58:57.028Z,-4.30
2022-12-03T06:01:23.931Z,-4.20
2022-12-03T06:03:51.047Z,-4.20
2022-12-03T06:06:18.303Z,-4.20
2022-12-03T06:08:45.195Z,-4.20
2022-12-03T06:11:12.325Z,-4.20
2022-12-03T06:13:39.435Z,-4.20
2022-12-03T06:16:06.738Z,-4.20
2022-12-03T06:18:33.906Z,-4.10
2022-12-03T06:21:00.861Z,-4.10
2022-12-03T06:23:27.938Z,-4.20
2022-12-03T06:25:55.088Z,-4.10
2022-12-03T06:28:22.040Z,-4.30
2022-12-03T06:30:49.072Z,-4.50
2022-12-03T06:33:16.145Z,-4.50
2022-12-03T06:35:43.107Z,-4.50
2022-12-03T06:38:10.217Z,-4.50
2022-12-03T06:40:38.523Z,-4.50
2022-12-03T06:43:05.494Z,-4.40
2022-12-03T06:45:32.558Z,-4.40
2022-12-03T06:47:59.573Z,-4.40
2022-12-03T06:50:26.622Z,-4.50
2022-12-03T06:52:53.863Z,-4.40
2022-12-03T06:55:20.968Z,-4.40
2022-12-03T06:57:47.883Z,-4.40
2022-12-03T07:00:15.630Z,-4.40
2022-12-03T07:02:44.841Z,-4.40
2022-12-03T07:05:11.920Z,-4.20
2022-12-03T07:07:39.495Z,-4.30
2022-12-03T07:10:10.289Z,-4.30
2022-12-03T07:12:38.178Z,-4.30
2022-12-03T07:15:05.634Z,-4.10
2022-12-03T07:17:32.797Z,-4.10
2022-12-03T07:19:59.768Z,-4.10
2022-12-03T07:22:26.711Z,-4.00
2022-12-03T07:24:55.561Z,-4.10
2022-12-03T07:27:23.107Z,-4.00
2022-12-03T07:29:50.586Z,-3.90
2022-12-03T07:32:18.112Z,-4.00
2022-12-03T07:34:45.253Z,-3.80
2022-12-03T07:37:12.704Z,-4.00
2022-12-03T07:39:39.814Z,-4.00
2022-12-03T07:42:07.093Z,-4.00
2022-12-03T07:44:34.296Z,-3.90
2022-12-03T07:47:01.705Z,-4.00
2022-12-03T07:49:28.840Z,-3.90
2022-12-03T07:51:57.260Z,-3.90
2022-12-03T07:54:25.060Z,-3.80
2022-12-03T07:56:57.916Z,-3.90
2022-12-03T07:59:28.400Z,-3.70
2022-12-03T08:01:56.275Z,-3.80
2022-12-03T08:04:23.670Z,-3.70
2022-12-03T08:06:50.765Z,-3.80
2022-12-03T08:09:18.331Z,-3.70
2022-12-03T08:11:49.238Z,-3.60
2022-12-03T08:14:19.755Z,-3.70
2022-12-03T08:16:47.910Z,-3.70
2022-12-03T08:19:17.474Z,-3.70
2022-12-03T08:21:45.050Z,-3.70
2022-12-03T08:24:21.805Z,-3.80
2022-12-03T08:26:50.179Z,-3.70
2022-12-03T08:29:20.335Z,-3.60
2022-12-03T08:31:52.870Z,-3.80
2022-12-03T08:34:27.258Z,-4.10
2022-12-03T08:37:03.150Z,-4.00
2022-12-03T08:39:33.886Z,-4.00
2022-12-03T08:42:35.594Z,-4.00
2022-12-03T08:45:25.450Z,-4.00
2022-12-03T08:47:52.812Z,-4.10
2022-12-03T08:50:33.667Z,-4.20
2022-12-03T08:53:14.049Z,-4.10
2022-12-03T08:55:53.237Z,-4.20
2022-12-03T08:58:39.159Z,-4.20
2022-12-03T09:01:09.080Z,-4.20
2022-12-03T09:03:37.105Z,-4.20
2022-12-03T09:06:06.118Z,-4.10
2022-12-03T09:08:33.447Z,-4.10
2022-12-03T09:11:01.475Z,-4.10
2022-12-03T09:13:28.705Z,-4.10
2022-12-03T09:15:55.772Z,-4.10
2022-12-03T09:18:23.113Z,-4.10
2022-12-03T09:20:50.883Z,-4.10
2022-12-03T09:23:18.272Z,-4.00
2022-12-03T09:25:45.564Z,-4.10
2022-12-03T09:28:12.475Z,-4.10
2022-12-03T09:30:42.328Z,-4.10
2022-12-03T09:33:10.748Z,-3.80
2022-12-03T09:35:41.638Z,-4.00
2022-12-03T09:38:08.974Z,-4.00
2022-12-03T09:40:37.383Z,-3.90
2022-12-03T09:43:05.288Z,-3.90
2022-12-03T09:45:32.886Z,-3.90
2022-12-03T09:48:04.178Z,-3.80
2022-12-03T09:50:32.374Z,-3.80
2022-12-03T09:53:03.021Z,-3.80
2022-12-03T09:55:31.185Z,-3.80
2022-12-03T09:57:58.798Z,-3.90
2022-12-03T10:00:31.916Z,-3.80
2022-12-03T10:03:03.556Z,-3.70
2022-12-03T10:05:31.149Z,-3.90
2022-12-03T10:08:05.876Z,-3.90
2022-12-03T10:10:34.673Z,-3.70
2022-12-03T10:13:02.187Z,-3.70
2022-12-03T10:15:29.594Z,-3.80
2022-12-03T10:17:57.621Z,-3.50
2022-12-03T10:20:26.236Z,-3.50
2022-12-03T10:22:53.680Z,-3.60
2022-12-03T10:25:22.843Z,-3.50
2022-12-03T10:28:01.465Z,-3.50
2022-12-03T10:30:29.743Z,-3.50
2022-12-03T10:32:59.477Z,-3.80
2022-12-03T10:35:43.314Z,-3.90
2022-12-03T10:38:14.238Z,-3.80
2022-12-03T10:40:41.774Z,-3.50
2022-12-03T10:43:23.948Z,-3.50
2022-12-03T10:46:04.715Z,-3.40
2022-12-03T10:48:32.557Z,-3.40
2022-12-03T10:51:13.798Z,-3.50
2022-12-03T10:53:44.003Z,-3.50
2022-12-03T10:56:22.629Z,-3.50
2022-12-03T10:58:50.056Z,-3.60
2022-12-03T11:01:19.908Z,-3.60
2022-12-03T11:03:48.927Z,-3.70
2022-12-03T11:06:19.120Z,-3.80
2022-12-03T11:08:54.614Z,-3.90
2022-12-03T11:11:31.515Z,-4.00
2022-12-03T11:14:04.314Z,-4.10
2022-12-03T11:16:41.089Z,-4.00
2022-12-03T11:19:18.779Z,-3.90
2022-12-03T11:22:10.025Z,-4.00
2022-12-03T11:24:40.346Z,-4.00
2022-12-03T11:27:09.385Z,-4.10
2022-12-03T11:29:51.980Z,-4.00
2022-12-03T11:32:44.320Z,-4.30
2022-12-03T11:35:39.553Z,-4.60
2022-12-03T11:38:38.777Z,-4.40
2022-12-03T11:41:24.938Z,-4.30
2022-12-03T11:43:59.158Z,-4.30
2022-12-03T11:46:41.393Z,-4.20
2022-12-03T11:49:22.619Z,-4.20
2022-12-03T11:51:51.014Z,-4.20
2022-12-03T11:54:22.061Z,-4.10
2022-12-03T11:56:50.416Z,-4.10
2022-12-03T11:59:18.618Z,-4.10
2022-12-03T12:01:46.895Z,-4.10
2022-12-03T12:04:35.676Z,-4.10
2022-12-03T12:07:03.201Z,-4.30
2022-12-03T12:09:54.493Z,-4.30
2022-12-03T12:12:30.506Z,-4.30
2022-12-03T12:14:59.276Z,-4.20
2022-12-03T12:17:37.839Z,-4.30
2022-12-03T12:20:14.005Z,-4.30
2022-12-03T12:22:40.994Z,-4.50
2022-12-03T12:25:29.810Z,-4.50
2022-12-03T12:27:58.973Z,-4.50
2022-12-03T12:30:26.775Z,-4.60
2022-12-03T12:33:03.723Z,-4.30
2022-12-03T12:35:43.554Z,-4.40
2022-12-03T12:38:18.407Z,-4.50
2022-12-03T12:40:49.652Z,-4.40
2022-12-03T12:43:26.735Z,-4.30
2022-12-03T12:45:57.007Z,-4.30
2022-12-03T12:48:35.390Z,-4.30
2022-12-03T12:51:11.395Z,-4.30
2022-12-03T12:53:45.203Z,-4.40
2022-12-03T12:56:22.348Z,-4.60
2022-12-03T12:58:50.169Z,-4.60
2022-12-03T13:01:36.869Z,-4.80
2022-12-03T13:04:15.783Z,-4.80
2022-12-03T13:06:43.991Z,-4.80
2022-12-03T13:09:25.849Z,-4.90
2022-12-03T13:12:07.745Z,-4.80
2022-12-03T13:14:37.710Z,-4.90
2022-12-03T13:17:26.261Z,-5.00
2022-12-03T13:20:03.698Z,-4.90
2022-12-03T13:22:34.963Z,-4.90
2022-12-03T13:25:50.515Z,-5.00
2022-12-03T13:28:13.578Z,-4.90
2022-12-03T13:30:41.041Z,-4.90
2022-12-03T13:33:24.132Z,-4.80
2022-12-03T13:35:52.800Z,-4.80
2022-12-03T13:38:21.785Z,-4.90
2022-12-03T13:40:59.288Z,-4.80
2022-12-03T13:43:30.695Z,-4.80
2022-12-03T13:45:58.431Z,-4.90
2022-12-03T13:48:46.096Z,-4.90
2022-12-03T13:51:26.685Z,-5.00
2022-12-03T13:53:54.615Z,-5.00
2022-12-03T13:56:30.282Z,-5.00
2022-12-03T13:59:00.759Z,-5.10
2022-12-03T14:01:28.584Z,-5.10
2022-12-03T14:03:56.327Z,-5.00
2022-12-03T14:06:23.831Z,-5.00
2022-12-03T14:08:51.637Z,-5.00
2022-12-03T14:11:37.836Z,-4.90
2022-12-03T14:14:04.881Z,-4.90
2022-12-03T14:16:33.669Z,-4.70
2022-12-03T14:19:00.866Z,-4.90
2022-12-03T14:21:28.215Z,-4.80
2022-12-03T14:23:55.775Z,-5.00
2022-12-03T14:26:23.215Z,-5.10
2022-12-03T14:28:50.319Z,-5.20
2022-12-03T14:31:17.399Z,-5.30
2022-12-03T14:33:44.448Z,-5.30
2022-12-03T14:36:11.789Z,-5.20
2022-12-03T14:38:39.039Z,-5.20
2022-12-03T14:41:26.372Z,-5.00
2022-12-03T14:43:53.636Z,-5.00
2022-12-03T14:46:22.459Z,-5.10
2022-12-03T14:48:49.660Z,-5.00
2022-12-03T14:51:17.349Z,-5.00
2022-12-03T14:53:44.476Z,-5.00
2022-12-03T14:56:11.840Z,-5.10
2022-12-03T14:58:39.148Z,-5.10
2022-12-03T15:01:06.986Z,-4.90
2022-12-03T15:03:34.585Z,-5.00
2022-12-03T15:06:02.125Z,-5.00
2022-12-03T15:08:29.356Z,-5.00
2022-12-03T15:10:58.956Z,-5.00
2022-12-03T15:13:27.876Z,-5.10
2022-12-03T15:15:55.639Z,-5.00
2022-12-03T15:18:23.251Z,-5.00
2022-12-03T15:20:50.804Z,-5.10
2022-12-03T15:23:18.503Z,-5.10
2022-12-03T15:25:45.996Z,-5.10
2022-12-03T15:28:14.057Z,-5.10
2022-12-03T15:30:41.713Z,-5.10
2022-12-03T15:33:09.274Z,-5.10
2022-12-03T15:35:38.443Z,-5.10
2022-12-03T15:38:05.669Z,-5.10
2022-12-03T15:40:33.569Z,-5.10
2022-12-03T15:43:04.615Z,-5.10
2022-12-03T15:45:32.623Z,-5.00
2022-12-03T15:48:00.555Z,-5.10
2022-12-03T15:50:28.422Z,-5.00
2022-12-03T15:52:56.403Z,-5.00
2022-12-03T15:55:23.691Z,-5.10
2022-12-03T15:57:51.156Z,-5.10
2022-12-03T16:00:18.861Z,-5.00
2022-12-03T16:02:52.470Z,-4.90
2022-12-03T16:05:24.650Z,-5.00
2022-12-03T16:07:58.144Z,-4.90
2022-12-03T16:10:26.205Z,-4.90
2022-12-03T16:12:54.883Z,-4.90
2022-12-03T16:15:27.056Z,-5.00
2022-12-03T16:17:54.975Z,-4.90
2022-12-03T16:20:26.045Z,-4.90
2022-12-03T16:22:57.028Z,-4.90
2022-12-03T16:25:24.540Z,-4.80
2022-12-03T16:27:52.138Z,-4.90
2022-12-03T16:30:20.863Z,-4.90
2022-12-03T16:32:48.728Z,-4.90
2022-12-03T16:35:17.621Z,-4.70
2022-12-03T16:37:45.690Z,-4.90
2022-12-03T16:40:12.904Z,-4.80
2022-12-03T16:42:40.241Z,-4.90
2022-12-03T16:45:11.151Z,-4.80
2022-12-03T16:47:38.895Z,-4.80
2022-12-03T16:50:15.868Z,-4.80
2022-12-03T16:52:49.908Z,-4.70
2022-12-03T16:55:16.987Z,-4.70
2022-12-03T16:57:44.404Z,-4.70
2022-12-03T17:00:11.885Z,-4.70
2022-12-03T17:02:38.948Z,-4.70
2022-12-03T17:05:07.153Z,-4.70
2022-12-03T17:07:34.697Z,-4.70
2022-12-03T17:10:04.326Z,-4.60
2022-12-03T17:13:07.204Z,-4.70
2022-12-03T17:15:21.607Z,-4.80
2022-12-03T17:17:49.046Z,-4.60
2022-12-03T17:20:18.142Z,-4.70
2022-12-03T17:22:46.626Z,-4.70
2022-12-03T17:25:14.156Z,-4.80
2022-12-03T17:27:45.147Z,-4.90
2022-12-03T17:30:13.337Z,-4.80
2022-12-03T17:32:40.591Z,-4.90
2022-12-03T17:35:09.021Z,-4.90
2022-12-03T17:37:36.719Z,-4.90
2022-12-03T17:40:08.637Z,-4.90
2022-12-03T17:42:36.546Z,-4.90
2022-12-03T17:45:04.069Z,-4.90
2022-12-03T17:47:31.948Z,-5.00
2022-12-03T17:49:59.139Z,-5.00
2022-12-03T17:52:26.332Z,-5.00
2022-12-03T17:55:12.788Z,-5.00
2022-12-03T17:57:40.748Z,-5.10
2022-12-03T18:00:24.869Z,-5.10
2022-12-03T18:02:52.118Z,-5.20
2022-12-03T18:05:20.618Z,-5.20
2022-12-03T18:07:48.356Z,-5.30
2022-12-03T18:10:16.798Z,-5.30
2022-12-03T18:12:44.364Z,-5.40
2022-12-03T18:15:12.164Z,-5.40
2022-12-03T18:17:40.061Z,-5.40
2022-12-03T18:20:08.489Z,-5.50
2022-12-03T18:22:36.307Z,-5.50
2022-12-03T18:25:04.784Z,-5.50
2022-12-03T18:27:31.951Z,-5.50
2022-12-03T18:30:00.468Z,-5.40
2022-12-03T18:32:29.717Z,-5.40
2022-12-03T18:34:58.120Z,-5.50
2022-12-03T18:37:30.086Z,-5.40
2022-12-03T18:39:58.356Z,-5.50
2022-12-03T18:42:26.123Z,-5.40
2022-12-03T18:44:55.994Z,-5.40
2022-12-03T18:47:27.303Z,-5.40
2022-12-03T18:49:56.284Z,-5.50
2022-12-03T18:52:25.382Z,-5.40
2022-12-03T18:54:53.324Z,-5.50
2022-12-03T18:57:22.882Z,-5.50
2022-12-03T18:59:50.386Z,-5.40
2022-12-03T19:03:01.995Z,-5.20
2022-12-03T19:05:14.596Z,-5.40
2022-12-03T19:07:43.989Z,-5.30
2022-12-03T19:10:12.361Z,-5.30
2022-12-03T19:12:39.587Z,-5.20
2022-12-03T19:15:09.273Z,-5.10
2022-12-03T19:17:41.382Z,-5.20
2022-12-03T19:20:10.875Z,-5.10
2022-12-03T19:22:38.339Z,-5.00
2022-12-03T19:25:06.015Z,-5.00
2022-12-03T19:27:33.763Z,-4.90
2022-12-03T19:30:01.354Z,-5.00
2022-12-03T19:32:28.957Z,-5.00
2022-12-03T19:34:56.383Z,-4.90
2022-12-03T19:37:25.618Z,-4.90
2022-12-03T19:39:56.488Z,-4.80
2022-12-03T19:42:24.154Z,-4.70
2022-12-03T19:44:52.014Z,-4.70
2022-12-03T19:47:20.221Z,-4.70
2022-12-03T19:49:48.057Z,-4.60
2022-12-03T19:52:15.160Z,-4.50
2022-12-03T19:54:42.626Z,-4.60
2022-12-03T19:57:09.818Z,-4.50
2022-12-03T19:59:37.285Z,-4.40
2022-12-03T20:02:04.704Z,-4.50
2022-12-03T20:04:32.096Z,-4.30
2022-12-03T20:06:59.476Z,-4.40
2022-12-03T20:09:26.866Z,-4.30
2022-12-03T20:11:54.273Z,-4.40
2022-12-03T20:14:22.234Z,-4.30
2022-12-03T20:16:50.562Z,-4.30
2022-12-03T20:19:18.825Z,-4.20
2022-12-03T20:21:46.673Z,-4.20
2022-12-03T20:24:17.174Z,-4.10
2022-12-03T20:26:46.575Z,-4.10
2022-12-03T20:29:14.069Z,-4.00
2022-12-03T20:31:41.301Z,-3.90
2022-12-03T20:34:10.140Z,-4.00
2022-12-03T20:36:37.888Z,-4.00
2022-12-03T20:39:07.519Z,-4.00
2022-12-03T20:41:36.973Z,-4.00
2022-12-03T20:44:06.573Z,-3.90
2022-12-03T20:46:34.546Z,-3.90
2022-12-03T20:49:02.079Z,-4.00
2022-12-03T20:51:31.033Z,-3.90
2022-12-03T20:53:59.924Z,-3.80
2022-12-03T20:56:41.267Z,-3.80
2022-12-03T20:59:14.048Z,-3.80
2022-12-03T21:01:42.545Z,-3.70
2022-12-03T21:04:10.804Z,-3.70
2022-12-03T21:06:38.830Z,-3.70
2022-12-03T21:09:07.316Z,-3.80
2022-12-03T21:11:36.185Z,-3.60
2022-12-03T21:14:04.360Z,-3.70
2022-12-03T21:17:05.904Z,-3.80
2022-12-03T21:19:23.969Z,-3.80
2022-12-03T21:21:51.133Z,-3.70
2022-12-03T21:24:18.270Z,-3.60
2022-12-03T21:26:45.448Z,-3.60
2022-12-03T21:29:13.007Z,-3.50
2022-12-03T21:31:40.288Z,-3.40
2022-12-03T21:34:09.804Z,-3.50
2022-12-03T21:36:37.029Z,-3.50
2022-12-03T21:39:05.347Z,-3.50
2022-12-03T21:41:32.461Z,-3.50
2022-12-03T21:44:02.225Z,-3.50
2022-12-03T21:47:10.837Z,-3.40
2022-12-03T21:49:19.927Z,-3.40
2022-12-03T21:51:48.908Z,-3.50
2022-12-03T21:54:16.800Z,-3.40
2022-12-03T21:56:44.164Z,-3.40
2022-12-03T21:59:11.181Z,-3.30
2022-12-03T22:01:42.762Z,-3.40
2022-12-03T22:04:12.990Z,-3.30
2022-12-03T22:06:40.005Z,-3.30
2022-12-03T22:09:07.486Z,-3.30
2022-12-03T22:11:34.892Z,-3.20
2022-12-03T22:14:05.020Z,-3.20
2022-12-03T22:16:32.357Z,-3.10
2022-12-03T22:18:59.462Z,-3.10
2022-12-03T22:21:26.615Z,-3.10
2022-12-03T22:23:53.663Z,-3.10
2022-12-03T22:26:20.926Z,-3.00
2022-12-03T22:28:50.908Z,-3.00
2022-12-03T22:31:19.292Z,-3.00
2022-12-03T22:33:48.622Z,-2.80
2022-12-03T22:36:20.916Z,-2.90
2022-12-03T22:38:50.114Z,-2.90
2022-12-03T22:41:17.395Z,-2.90
2022-12-03T22:43:45.788Z,-2.90
2022-12-03T22:46:13.388Z,-2.90
2022-12-03T22:48:42.244Z,-2.80
2022-12-03T22:51:21.445Z,-2.80
2022-12-03T22:53:48.981Z,-2.80
2022-12-03T22:56:17.338Z,-2.70
2022-12-03T22:58:44.280Z,-2.70
2022-12-03T23:01:39.399Z,-2.70
2022-12-03T23:04:08.131Z,-2.70
2022-12-03T23:06:36.770Z,-2.70
2022-12-03T23:09:05.124Z,-2.80
2022-12-03T23:11:32.125Z,-2.70
2022-12-03T23:13:59.312Z,-2.70
2022-12-03T23:16:29.550Z,-2.80
2022-12-03T23:18:59.766Z,-2.70
2022-12-03T23:21:30.644Z,-2.70
2022-12-03T23:23:59.696Z,-2.70
2022-12-03T23:26:27.198Z,-2.60
2022-12-03T23:28:54.609Z,-2.60
2022-12-03T23:31:27.515Z,-2.60
2022-12-03T23:33:55.489Z,-2.60
2022-12-03T23:36:24.807Z,-2.50
2022-12-03T23:38:51.799Z,-2.50
2022-12-03T23:41:20.837Z,-2.50
2022-12-03T23:43:47.934Z,-2.50
2022-12-03T23:46:20.851Z,-2.50
2022-12-03T23:48:47.984Z,-2.50
2022-12-03T23:51:17.813Z,-2.50
2022-12-03T23:53:45.131Z,-2.40
2022-12-03T23:56:18.615Z,-2.30
2022-12-03T23:58:46.655Z,-2.40
